UAL2616 KSTL-KIAH
Flight info
| Callsign | UAL2616 |
|---|---|
| Flight time | 1h 41m |
| Altitude | 36000 |
| Route | BERYY6 LITTR Q33 SWEUP GESNR2 |
| Aircraft | A320/M-SDE3FGHIRWY/LB1 |
Departure
| Time | 2026-05-03 22:45 |
|---|---|
| Airport | St. Louis Lambert International Airport (KSTL) |
Arrival
| Time | 2026-05-04 00:27 |
|---|---|
| Airport | George Bush Intercontinental Airport (KIAH) |
| Time | Latitude | Longitude | Altitude | Speed | Heading |
|---|---|---|---|---|---|
| 2026-05-03 22:20 | 38.74183 | -90.36054 | 633 ft | 0 kts | 190° |
| 2026-05-03 22:33 | 38.74194 | -90.36052 | 632 ft | 4 kts | 192° |
| 2026-05-03 22:34 | 38.74221 | -90.36043 | 632 ft | 4 kts | 195° |
| 2026-05-03 22:34 | 38.74246 | -90.36037 | 632 ft | 4 kts | 166° |
| 2026-05-03 22:34 | 38.74257 | -90.36044 | 632 ft | 0 kts | 122° |
| 2026-05-03 22:38 | 38.74254 | -90.36037 | 632 ft | 2 kts | 122° |
| 2026-05-03 22:39 | 38.74243 | -90.36015 | 632 ft | 4 kts | 122° |
| 2026-05-03 22:39 | 38.74224 | -90.35976 | 632 ft | 6 kts | 122° |
| 2026-05-03 22:39 | 38.74197 | -90.35921 | 632 ft | 8 kts | 122° |
| 2026-05-03 22:39 | 38.74162 | -90.35851 | 632 ft | 10 kts | 122° |
| 2026-05-03 22:40 | 38.74120 | -90.35765 | 632 ft | 13 kts | 122° |
| 2026-05-03 22:40 | 38.74069 | -90.35662 | 632 ft | 15 kts | 122° |
| 2026-05-03 22:40 | 38.74019 | -90.35562 | 632 ft | 9 kts | 123° |
| 2026-05-03 22:40 | 38.73981 | -90.35488 | 632 ft | 11 kts | 123° |
| 2026-05-03 22:41 | 38.73936 | -90.35396 | 632 ft | 13 kts | 122° |
| 2026-05-03 22:41 | 38.73892 | -90.35308 | 632 ft | 9 kts | 122° |
| 2026-05-03 22:41 | 38.73892 | -90.35231 | 632 ft | 10 kts | 47° |
| 2026-05-03 22:41 | 38.73890 | -90.35148 | 632 ft | 12 kts | 122° |
| 2026-05-03 22:42 | 38.73843 | -90.35055 | 632 ft | 14 kts | 122° |
| 2026-05-03 22:42 | 38.73789 | -90.34944 | 632 ft | 16 kts | 121° |
| 2026-05-03 22:42 | 38.73739 | -90.34842 | 632 ft | 7 kts | 122° |
| 2026-05-03 22:42 | 38.73712 | -90.34787 | 632 ft | 6 kts | 122° |
| 2026-05-03 22:43 | 38.73702 | -90.34744 | 632 ft | 5 kts | 65° |
| 2026-05-03 22:43 | 38.73708 | -90.34734 | 632 ft | 2 kts | 47° |
| 2026-05-03 22:43 | 38.73724 | -90.34717 | 632 ft | 4 kts | 38° |
| 2026-05-03 22:43 | 38.73754 | -90.34691 | 632 ft | 6 kts | 31° |
| 2026-05-03 22:44 | 38.73798 | -90.34698 | 632 ft | 8 kts | 319° |
| 2026-05-03 22:44 | 38.73833 | -90.34761 | 632 ft | 10 kts | 302° |
| 2026-05-03 22:44 | 38.73888 | -90.34873 | 632 ft | 33 kts | 301° |
| 2026-05-03 22:44 | 38.74125 | -90.35359 | 633 ft | 95 kts | 302° |
| 2026-05-03 22:45 | 38.74578 | -90.36273 | 633 ft | 145 kts | 301° |
| 2026-05-03 22:45 | 38.75186 | -90.37434 | 915 ft | 158 kts | 298° |
| 2026-05-03 22:45 | 38.75825 | -90.38610 | 1395 ft | 163 kts | 298° |
| 2026-05-03 22:45 | 38.76470 | -90.39832 | 1897 ft | 170 kts | 298° |
| 2026-05-03 22:46 | 38.77110 | -90.41159 | 2268 ft | 182 kts | 294° |
| 2026-05-03 22:46 | 38.77760 | -90.42633 | 2554 ft | 197 kts | 291° |
| 2026-05-03 22:46 | 38.78272 | -90.44325 | 2849 ft | 212 kts | 277° |
| 2026-05-03 22:46 | 38.78227 | -90.46235 | 3196 ft | 223 kts | 248° |
| 2026-05-03 22:47 | 38.77401 | -90.47964 | 3670 ft | 236 kts | 231° |
| 2026-05-03 22:47 | 38.76362 | -90.49616 | 4303 ft | 244 kts | 232° |
| 2026-05-03 22:47 | 38.75276 | -90.51312 | 5057 ft | 248 kts | 226° |
| 2026-05-03 22:47 | 38.73860 | -90.52583 | 5817 ft | 253 kts | 207° |
| 2026-05-03 22:48 | 38.72191 | -90.53354 | 6580 ft | 257 kts | 201° |
| 2026-05-03 22:48 | 38.70456 | -90.54016 | 7281 ft | 262 kts | 201° |
| 2026-05-03 22:48 | 38.68696 | -90.54726 | 7927 ft | 267 kts | 203° |
| 2026-05-03 22:48 | 38.66927 | -90.55513 | 8597 ft | 272 kts | 205° |
| 2026-05-03 22:49 | 38.65130 | -90.56338 | 9240 ft | 277 kts | 205° |
| 2026-05-03 22:49 | 38.63296 | -90.57173 | 9864 ft | 282 kts | 205° |
| 2026-05-03 22:49 | 38.61422 | -90.58010 | 10426 ft | 290 kts | 205° |
| 2026-05-03 22:49 | 38.59467 | -90.58881 | 10764 ft | 305 kts | 205° |
| 2026-05-03 22:50 | 38.57416 | -90.59797 | 11084 ft | 319 kts | 205° |
| 2026-05-03 22:50 | 38.55272 | -90.60752 | 11371 ft | 334 kts | 205° |
| 2026-05-03 22:50 | 38.53038 | -90.61742 | 11733 ft | 344 kts | 205° |
| 2026-05-03 22:50 | 38.50725 | -90.62763 | 12265 ft | 349 kts | 205° |
| 2026-05-03 22:51 | 38.48417 | -90.63781 | 12815 ft | 352 kts | 205° |
| 2026-05-03 22:51 | 38.46122 | -90.64795 | 13355 ft | 355 kts | 205° |
| 2026-05-03 22:51 | 38.43773 | -90.65836 | 13891 ft | 358 kts | 205° |
| 2026-05-03 22:51 | 38.41407 | -90.66886 | 14395 ft | 362 kts | 205° |
| 2026-05-03 22:52 | 38.39009 | -90.67948 | 14916 ft | 365 kts | 205° |
| 2026-05-03 22:52 | 38.36604 | -90.69011 | 15425 ft | 368 kts | 205° |
| 2026-05-03 22:52 | 38.34170 | -90.70085 | 15919 ft | 371 kts | 205° |
| 2026-05-03 22:52 | 38.31723 | -90.71164 | 16414 ft | 374 kts | 205° |
| 2026-05-03 22:53 | 38.29253 | -90.72254 | 16906 ft | 377 kts | 205° |
| 2026-05-03 22:53 | 38.26765 | -90.73350 | 17381 ft | 379 kts | 205° |
| 2026-05-03 22:53 | 38.24261 | -90.74453 | 17835 ft | 382 kts | 205° |
| 2026-05-03 22:53 | 38.21738 | -90.75565 | 18293 ft | 385 kts | 205° |
| 2026-05-03 22:54 | 38.19194 | -90.76685 | 18741 ft | 388 kts | 205° |
| 2026-05-03 22:54 | 38.16632 | -90.77811 | 19175 ft | 391 kts | 205° |
| 2026-05-03 22:54 | 38.14050 | -90.78938 | 19601 ft | 394 kts | 205° |
| 2026-05-03 22:54 | 38.11447 | -90.80067 | 20018 ft | 396 kts | 205° |
| 2026-05-03 22:55 | 38.08823 | -90.81201 | 20426 ft | 399 kts | 205° |
| 2026-05-03 22:55 | 38.06185 | -90.82342 | 20827 ft | 402 kts | 205° |
| 2026-05-03 22:55 | 38.03533 | -90.83492 | 21221 ft | 405 kts | 205° |
| 2026-05-03 22:55 | 38.00859 | -90.84653 | 21606 ft | 407 kts | 205° |
| 2026-05-03 22:56 | 37.98202 | -90.85806 | 21982 ft | 410 kts | 204° |
| 2026-05-03 22:56 | 37.95496 | -90.86977 | 22353 ft | 412 kts | 204° |
| 2026-05-03 22:56 | 37.92737 | -90.88165 | 22714 ft | 415 kts | 204° |
| 2026-05-03 22:56 | 37.90000 | -90.89344 | 23064 ft | 417 kts | 204° |
| 2026-05-03 22:57 | 37.87246 | -90.90532 | 23407 ft | 419 kts | 204° |
| 2026-05-03 22:57 | 37.84513 | -90.91712 | 23737 ft | 421 kts | 204° |
| 2026-05-03 22:57 | 37.81728 | -90.92913 | 24068 ft | 424 kts | 204° |
| 2026-05-03 22:57 | 37.78933 | -90.94115 | 24400 ft | 425 kts | 204° |
| 2026-05-03 22:58 | 37.76125 | -90.95323 | 24728 ft | 427 kts | 204° |
| 2026-05-03 22:58 | 37.73306 | -90.96534 | 25046 ft | 429 kts | 204° |
| 2026-05-03 22:58 | 37.70475 | -90.97749 | 25357 ft | 430 kts | 204° |
| 2026-05-03 22:58 | 37.67634 | -90.98968 | 25667 ft | 432 kts | 204° |
| 2026-05-03 22:59 | 37.64781 | -91.00190 | 25966 ft | 434 kts | 204° |
| 2026-05-03 22:59 | 37.61922 | -91.01414 | 26273 ft | 435 kts | 204° |
| 2026-05-03 22:59 | 37.59053 | -91.02641 | 26567 ft | 436 kts | 204° |
| 2026-05-03 22:59 | 37.56160 | -91.03856 | 26855 ft | 438 kts | 204° |
| 2026-05-03 23:00 | 37.53253 | -91.05045 | 27128 ft | 440 kts | 204° |
| 2026-05-03 23:00 | 37.50328 | -91.06226 | 27396 ft | 442 kts | 204° |
| 2026-05-03 23:00 | 37.47386 | -91.07419 | 27664 ft | 444 kts | 204° |
| 2026-05-03 23:00 | 37.44449 | -91.08624 | 27939 ft | 445 kts | 204° |
| 2026-05-03 23:01 | 37.41500 | -91.09839 | 28194 ft | 446 kts | 204° |
| 2026-05-03 23:01 | 37.39542 | -91.10646 | 28359 ft | 447 kts | 204° |
| 2026-05-03 23:01 | 37.35617 | -91.12260 | 28697 ft | 449 kts | 204° |
| 2026-05-03 23:01 | 37.32641 | -91.13477 | 28948 ft | 450 kts | 204° |
| 2026-05-03 23:02 | 37.29652 | -91.14698 | 29190 ft | 452 kts | 204° |
| 2026-05-03 23:02 | 37.26655 | -91.15920 | 29431 ft | 454 kts | 204° |
| 2026-05-03 23:02 | 37.24657 | -91.16735 | 29596 ft | 454 kts | 204° |
| 2026-05-03 23:02 | 37.21643 | -91.17963 | 29839 ft | 456 kts | 204° |
| 2026-05-03 23:03 | 37.18624 | -91.19195 | 30067 ft | 457 kts | 204° |
| 2026-05-03 23:03 | 37.15590 | -91.20432 | 30293 ft | 458 kts | 204° |
| 2026-05-03 23:03 | 37.12554 | -91.21669 | 30576 ft | 458 kts | 204° |
| 2026-05-03 23:03 | 37.09526 | -91.22898 | 30885 ft | 457 kts | 204° |
| 2026-05-03 23:04 | 37.06501 | -91.24127 | 31177 ft | 456 kts | 204° |
| 2026-05-03 23:04 | 37.03486 | -91.25351 | 31499 ft | 455 kts | 204° |
| 2026-05-03 23:04 | 37.00480 | -91.26570 | 31779 ft | 454 kts | 204° |
| 2026-05-03 23:04 | 36.97476 | -91.27787 | 32052 ft | 453 kts | 204° |
| 2026-05-03 23:05 | 36.94481 | -91.29000 | 32316 ft | 453 kts | 204° |
| 2026-05-03 23:05 | 36.91479 | -91.30214 | 32581 ft | 452 kts | 204° |
| 2026-05-03 23:05 | 36.88516 | -91.31411 | 32835 ft | 451 kts | 204° |
| 2026-05-03 23:05 | 36.85527 | -91.32618 | 33084 ft | 451 kts | 204° |
| 2026-05-03 23:06 | 36.82546 | -91.33821 | 33329 ft | 450 kts | 204° |
| 2026-05-03 23:06 | 36.79564 | -91.35024 | 33569 ft | 450 kts | 204° |
| 2026-05-03 23:06 | 36.76592 | -91.36222 | 33840 ft | 448 kts | 204° |
| 2026-05-03 23:06 | 36.73622 | -91.37419 | 34037 ft | 449 kts | 204° |
| 2026-05-03 23:07 | 36.70650 | -91.38615 | 34255 ft | 448 kts | 204° |
| 2026-05-03 23:07 | 36.67685 | -91.39806 | 34472 ft | 448 kts | 204° |
| 2026-05-03 23:07 | 36.64724 | -91.40993 | 34694 ft | 447 kts | 204° |
| 2026-05-03 23:07 | 36.61766 | -91.42181 | 34857 ft | 447 kts | 204° |
| 2026-05-03 23:08 | 36.58798 | -91.43373 | 35058 ft | 447 kts | 204° |
| 2026-05-03 23:08 | 36.55850 | -91.44553 | 35261 ft | 446 kts | 204° |
| 2026-05-03 23:08 | 36.52888 | -91.45737 | 35436 ft | 446 kts | 204° |
| 2026-05-03 23:08 | 36.49934 | -91.46918 | 35608 ft | 445 kts | 204° |
| 2026-05-03 23:09 | 36.46980 | -91.48099 | 35770 ft | 445 kts | 204° |
| 2026-05-03 23:09 | 36.44027 | -91.49279 | 35923 ft | 445 kts | 203° |
| 2026-05-03 23:09 | 36.41086 | -91.50453 | 36037 ft | 443 kts | 203° |
| 2026-05-03 23:10 | 36.35222 | -91.52791 | 36029 ft | 443 kts | 203° |
| 2026-05-03 23:10 | 36.29358 | -91.55126 | 36029 ft | 443 kts | 203° |
| 2026-05-03 23:11 | 36.23527 | -91.57443 | 36030 ft | 443 kts | 203° |
| 2026-05-03 23:11 | 36.17650 | -91.59772 | 36034 ft | 443 kts | 203° |
| 2026-05-03 23:12 | 36.11785 | -91.62097 | 36047 ft | 442 kts | 203° |
| 2026-05-03 23:12 | 36.05929 | -91.64413 | 36005 ft | 441 kts | 203° |
| 2026-05-03 23:13 | 36.00079 | -91.66723 | 35985 ft | 441 kts | 203° |
| 2026-05-03 23:13 | 35.94230 | -91.69028 | 35984 ft | 442 kts | 203° |
| 2026-05-03 23:14 | 35.88338 | -91.71349 | 35994 ft | 446 kts | 203° |
| 2026-05-03 23:14 | 35.82387 | -91.73689 | 36053 ft | 449 kts | 203° |
| 2026-05-03 23:15 | 35.76467 | -91.76009 | 36080 ft | 449 kts | 202° |
| 2026-05-03 23:15 | 35.70541 | -91.78328 | 36084 ft | 445 kts | 203° |
| 2026-05-03 23:16 | 35.64671 | -91.80624 | 36076 ft | 440 kts | 203° |
| 2026-05-03 23:16 | 35.58849 | -91.82900 | 36033 ft | 437 kts | 203° |
| 2026-05-03 23:17 | 35.53059 | -91.85161 | 36003 ft | 437 kts | 202° |
| 2026-05-03 23:17 | 35.47220 | -91.87436 | 36040 ft | 444 kts | 202° |
| 2026-05-03 23:18 | 35.41330 | -91.89722 | 36047 ft | 444 kts | 202° |
| 2026-05-03 23:18 | 35.35472 | -91.91995 | 36050 ft | 444 kts | 202° |
| 2026-05-03 23:19 | 35.29581 | -91.94280 | 36054 ft | 444 kts | 202° |
| 2026-05-03 23:19 | 35.23691 | -91.96559 | 36063 ft | 444 kts | 202° |
| 2026-05-03 23:20 | 35.17800 | -91.98836 | 36085 ft | 444 kts | 202° |
| 2026-05-03 23:20 | 35.11912 | -92.01110 | 36069 ft | 444 kts | 202° |
| 2026-05-03 23:21 | 35.06009 | -92.03382 | 36035 ft | 444 kts | 202° |
| 2026-05-03 23:21 | 35.00111 | -92.05651 | 35993 ft | 444 kts | 202° |
| 2026-05-03 23:22 | 34.91259 | -92.09050 | 35988 ft | 445 kts | 202° |
| 2026-05-03 23:22 | 34.85353 | -92.11313 | 35990 ft | 449 kts | 202° |
| 2026-05-03 23:23 | 34.79369 | -92.13602 | 36041 ft | 453 kts | 202° |
| 2026-05-03 23:23 | 34.73351 | -92.15902 | 36089 ft | 453 kts | 202° |
| 2026-05-03 23:24 | 34.67324 | -92.18085 | 36078 ft | 452 kts | 196° |
| 2026-05-03 23:24 | 34.61125 | -92.19365 | 36082 ft | 450 kts | 192° |
| 2026-05-03 23:25 | 34.54953 | -92.20440 | 36046 ft | 446 kts | 192° |
| 2026-05-03 23:25 | 34.48830 | -92.21598 | 36003 ft | 444 kts | 193° |
| 2026-05-03 23:26 | 34.42729 | -92.22783 | 36031 ft | 446 kts | 193° |
| 2026-05-03 23:26 | 34.36538 | -92.23944 | 36056 ft | 453 kts | 192° |
| 2026-05-03 23:27 | 34.30318 | -92.25106 | 36060 ft | 452 kts | 192° |
| 2026-05-03 23:27 | 34.24098 | -92.26278 | 36067 ft | 452 kts | 193° |
| 2026-05-03 23:28 | 34.17909 | -92.27442 | 36072 ft | 452 kts | 192° |
| 2026-05-03 23:28 | 34.11688 | -92.28604 | 36096 ft | 452 kts | 192° |
| 2026-05-03 23:29 | 34.05475 | -92.29762 | 36110 ft | 452 kts | 192° |
| 2026-05-03 23:29 | 33.99259 | -92.30924 | 36115 ft | 452 kts | 192° |
| 2026-05-03 23:30 | 33.93044 | -92.32080 | 36113 ft | 452 kts | 192° |
| 2026-05-03 23:30 | 33.86832 | -92.33234 | 36116 ft | 451 kts | 192° |
| 2026-05-03 23:31 | 33.80661 | -92.34380 | 36092 ft | 452 kts | 193° |
| 2026-05-03 23:31 | 33.74442 | -92.35533 | 36080 ft | 452 kts | 193° |
| 2026-05-03 23:32 | 33.68225 | -92.36683 | 36063 ft | 452 kts | 193° |
| 2026-05-03 23:32 | 33.62003 | -92.37834 | 36047 ft | 452 kts | 193° |
| 2026-05-03 23:33 | 33.55772 | -92.38983 | 36045 ft | 452 kts | 193° |
| 2026-05-03 23:33 | 33.49558 | -92.40128 | 36074 ft | 452 kts | 193° |
| 2026-05-03 23:34 | 33.43337 | -92.41273 | 36062 ft | 452 kts | 193° |
| 2026-05-03 23:34 | 33.37117 | -92.42416 | 36073 ft | 452 kts | 193° |
| 2026-05-03 23:35 | 33.30923 | -92.43553 | 36086 ft | 452 kts | 193° |
| 2026-05-03 23:35 | 33.24691 | -92.44696 | 36092 ft | 453 kts | 193° |
| 2026-05-03 23:36 | 33.18458 | -92.45837 | 36126 ft | 452 kts | 194° |
| 2026-05-03 23:36 | 33.12234 | -92.46972 | 36154 ft | 452 kts | 194° |
| 2026-05-03 23:37 | 33.06014 | -92.48107 | 36145 ft | 452 kts | 194° |
| 2026-05-03 23:37 | 32.99796 | -92.49242 | 36125 ft | 452 kts | 194° |
| 2026-05-03 23:38 | 32.93571 | -92.50375 | 36140 ft | 451 kts | 194° |
| 2026-05-03 23:38 | 32.87398 | -92.51497 | 36138 ft | 451 kts | 194° |
| 2026-05-03 23:39 | 32.81183 | -92.52625 | 36107 ft | 452 kts | 194° |
| 2026-05-03 23:39 | 32.74969 | -92.53749 | 36090 ft | 452 kts | 194° |
| 2026-05-03 23:40 | 32.68755 | -92.54875 | 36070 ft | 452 kts | 194° |
| 2026-05-03 23:40 | 32.62538 | -92.55996 | 36077 ft | 452 kts | 195° |
| 2026-05-03 23:41 | 32.56319 | -92.57122 | 36102 ft | 451 kts | 195° |
| 2026-05-03 23:41 | 32.50109 | -92.58246 | 36133 ft | 450 kts | 195° |
| 2026-05-03 23:42 | 32.43945 | -92.59356 | 36116 ft | 451 kts | 195° |
| 2026-05-03 23:42 | 32.37736 | -92.60474 | 36124 ft | 450 kts | 195° |
| 2026-05-03 23:43 | 32.31567 | -92.61584 | 36125 ft | 450 kts | 195° |
| 2026-05-03 23:43 | 32.25375 | -92.62694 | 36083 ft | 450 kts | 195° |
| 2026-05-03 23:44 | 32.19198 | -92.63802 | 36070 ft | 448 kts | 195° |
| 2026-05-03 23:44 | 32.13065 | -92.64898 | 36075 ft | 444 kts | 195° |
| 2026-05-03 23:45 | 32.06963 | -92.65990 | 36089 ft | 442 kts | 195° |
| 2026-05-03 23:45 | 32.00885 | -92.67205 | 36112 ft | 445 kts | 201° |
| 2026-05-03 23:46 | 31.97996 | -92.68412 | 36111 ft | 434 kts | 213° |
| 2026-05-03 23:46 | 31.95454 | -92.70228 | 36117 ft | 421 kts | 225° |
| 2026-05-03 23:46 | 31.91467 | -92.75105 | 36136 ft | 411 kts | 236° |
| 2026-05-03 23:47 | 31.87741 | -92.80232 | 36140 ft | 415 kts | 235° |
| 2026-05-03 23:47 | 31.84490 | -92.84442 | 36174 ft | 419 kts | 233° |
| 2026-05-03 23:48 | 31.80539 | -92.89463 | 36174 ft | 417 kts | 234° |
| 2026-05-03 23:48 | 31.76659 | -92.94497 | 36173 ft | 413 kts | 234° |
| 2026-05-03 23:49 | 31.72816 | -92.99486 | 36133 ft | 410 kts | 234° |
| 2026-05-03 23:49 | 31.69013 | -93.04381 | 36089 ft | 406 kts | 234° |
| 2026-05-03 23:50 | 31.65175 | -93.09333 | 36126 ft | 414 kts | 234° |
| 2026-05-03 23:50 | 31.61279 | -93.14351 | 36134 ft | 416 kts | 234° |
| 2026-05-03 23:51 | 31.57371 | -93.19365 | 36139 ft | 416 kts | 234° |
| 2026-05-03 23:51 | 31.53465 | -93.24380 | 36009 ft | 414 kts | 234° |
| 2026-05-03 23:52 | 31.51528 | -93.26861 | 35701 ft | 411 kts | 235° |
| 2026-05-03 23:52 | 31.49598 | -93.29333 | 35456 ft | 409 kts | 235° |
| 2026-05-03 23:52 | 31.47680 | -93.31790 | 35210 ft | 408 kts | 235° |
| 2026-05-03 23:52 | 31.45766 | -93.34240 | 34961 ft | 406 kts | 235° |
| 2026-05-03 23:53 | 31.43866 | -93.36670 | 34715 ft | 404 kts | 235° |
| 2026-05-03 23:53 | 31.41994 | -93.39064 | 34471 ft | 402 kts | 235° |
| 2026-05-03 23:53 | 31.40108 | -93.41473 | 34225 ft | 401 kts | 235° |
| 2026-05-03 23:53 | 31.38228 | -93.43872 | 33976 ft | 399 kts | 235° |
| 2026-05-03 23:54 | 31.36354 | -93.46261 | 33726 ft | 397 kts | 235° |
| 2026-05-03 23:54 | 31.34487 | -93.48641 | 33479 ft | 395 kts | 235° |
| 2026-05-03 23:54 | 31.32631 | -93.51004 | 33232 ft | 394 kts | 235° |
| 2026-05-03 23:54 | 31.30779 | -93.53363 | 32984 ft | 393 kts | 235° |
| 2026-05-03 23:55 | 31.28938 | -93.55708 | 32737 ft | 391 kts | 235° |
| 2026-05-03 23:55 | 31.27092 | -93.58055 | 32490 ft | 390 kts | 235° |
| 2026-05-03 23:55 | 31.25257 | -93.60385 | 32242 ft | 389 kts | 235° |
| 2026-05-03 23:55 | 31.23429 | -93.62707 | 31995 ft | 387 kts | 235° |
| 2026-05-03 23:56 | 31.21606 | -93.65019 | 31747 ft | 386 kts | 234° |
| 2026-05-03 23:56 | 31.19790 | -93.67322 | 31500 ft | 384 kts | 234° |
| 2026-05-03 23:56 | 31.17983 | -93.69613 | 31253 ft | 383 kts | 234° |
| 2026-05-03 23:56 | 31.16181 | -93.71895 | 31005 ft | 381 kts | 234° |
| 2026-05-03 23:57 | 31.14385 | -93.74168 | 30758 ft | 379 kts | 234° |
| 2026-05-03 23:57 | 31.12598 | -93.76429 | 30510 ft | 378 kts | 234° |
| 2026-05-03 23:57 | 31.10821 | -93.78677 | 30264 ft | 377 kts | 234° |
| 2026-05-03 23:57 | 31.09047 | -93.80921 | 30016 ft | 375 kts | 234° |
| 2026-05-03 23:58 | 31.07306 | -93.83122 | 29771 ft | 373 kts | 234° |
| 2026-05-03 23:58 | 31.05547 | -93.85342 | 29524 ft | 372 kts | 234° |
| 2026-05-03 23:58 | 31.03792 | -93.87556 | 29273 ft | 370 kts | 234° |
| 2026-05-03 23:58 | 31.02045 | -93.89759 | 29026 ft | 369 kts | 234° |
| 2026-05-03 23:59 | 31.00303 | -93.91955 | 28778 ft | 367 kts | 234° |
| 2026-05-03 23:59 | 30.98570 | -93.94138 | 28530 ft | 366 kts | 234° |
| 2026-05-03 23:59 | 30.96842 | -93.96312 | 28282 ft | 365 kts | 234° |
| 2026-05-03 23:59 | 30.95121 | -93.98477 | 28035 ft | 364 kts | 234° |
| 2026-05-04 00:00 | 30.93405 | -94.00632 | 27787 ft | 362 kts | 234° |
| 2026-05-04 00:00 | 30.91691 | -94.02787 | 27540 ft | 362 kts | 234° |
| 2026-05-04 00:00 | 30.90003 | -94.04906 | 27269 ft | 361 kts | 234° |
| 2026-05-04 00:00 | 30.88297 | -94.07046 | 26862 ft | 359 kts | 234° |
| 2026-05-04 00:01 | 30.86603 | -94.09171 | 26445 ft | 357 kts | 234° |
| 2026-05-04 00:01 | 30.84916 | -94.11285 | 26026 ft | 356 kts | 234° |
| 2026-05-04 00:01 | 30.83232 | -94.13395 | 25601 ft | 355 kts | 234° |
| 2026-05-04 00:01 | 30.81551 | -94.15501 | 25171 ft | 353 kts | 234° |
| 2026-05-04 00:02 | 30.79881 | -94.17591 | 24734 ft | 352 kts | 234° |
| 2026-05-04 00:02 | 30.78213 | -94.19677 | 24297 ft | 352 kts | 234° |
| 2026-05-04 00:02 | 30.76546 | -94.21759 | 23858 ft | 351 kts | 234° |
| 2026-05-04 00:02 | 30.74884 | -94.23838 | 23423 ft | 350 kts | 234° |
| 2026-05-04 00:03 | 30.73225 | -94.25915 | 23015 ft | 349 kts | 234° |
| 2026-05-04 00:03 | 30.71601 | -94.27950 | 22610 ft | 348 kts | 234° |
| 2026-05-04 00:03 | 30.69953 | -94.30012 | 22163 ft | 348 kts | 233° |
| 2026-05-04 00:03 | 30.68305 | -94.32072 | 21712 ft | 348 kts | 233° |
| 2026-05-04 00:04 | 30.66655 | -94.34132 | 21283 ft | 348 kts | 233° |
| 2026-05-04 00:04 | 30.65002 | -94.36193 | 20849 ft | 348 kts | 233° |
| 2026-05-04 00:04 | 30.63351 | -94.38245 | 20424 ft | 348 kts | 232° |
| 2026-05-04 00:04 | 30.61698 | -94.40300 | 19976 ft | 348 kts | 232° |
| 2026-05-04 00:05 | 30.60045 | -94.42364 | 19520 ft | 349 kts | 232° |
| 2026-05-04 00:05 | 30.58385 | -94.44437 | 19076 ft | 349 kts | 232° |
| 2026-05-04 00:05 | 30.56729 | -94.46501 | 18633 ft | 350 kts | 231° |
| 2026-05-04 00:05 | 30.55069 | -94.48564 | 18190 ft | 350 kts | 231° |
| 2026-05-04 00:06 | 30.53422 | -94.50649 | 17746 ft | 349 kts | 233° |
| 2026-05-04 00:06 | 30.51887 | -94.52825 | 17242 ft | 348 kts | 235° |
| 2026-05-04 00:06 | 30.50394 | -94.55030 | 16751 ft | 347 kts | 236° |
| 2026-05-04 00:06 | 30.48917 | -94.57234 | 16275 ft | 346 kts | 236° |
| 2026-05-04 00:07 | 30.47441 | -94.59428 | 15829 ft | 343 kts | 235° |
| 2026-05-04 00:07 | 30.45977 | -94.61576 | 15622 ft | 334 kts | 235° |
| 2026-05-04 00:07 | 30.44572 | -94.63624 | 15500 ft | 322 kts | 235° |
| 2026-05-04 00:07 | 30.43202 | -94.65621 | 15357 ft | 312 kts | 235° |
| 2026-05-04 00:08 | 30.41859 | -94.67586 | 14960 ft | 311 kts | 235° |
| 2026-05-04 00:08 | 30.40512 | -94.69560 | 14514 ft | 312 kts | 234° |
| 2026-05-04 00:08 | 30.39117 | -94.71486 | 14124 ft | 312 kts | 232° |
| 2026-05-04 00:08 | 30.37692 | -94.73379 | 13739 ft | 311 kts | 231° |
| 2026-05-04 00:09 | 30.36265 | -94.75248 | 13358 ft | 309 kts | 231° |
| 2026-05-04 00:09 | 30.34842 | -94.77112 | 12996 ft | 307 kts | 231° |
| 2026-05-04 00:09 | 30.33435 | -94.78963 | 12612 ft | 306 kts | 231° |
| 2026-05-04 00:09 | 30.32031 | -94.80817 | 12258 ft | 304 kts | 231° |
| 2026-05-04 00:10 | 30.30642 | -94.82655 | 11870 ft | 303 kts | 230° |
| 2026-05-04 00:10 | 30.29253 | -94.84490 | 11486 ft | 302 kts | 230° |
| 2026-05-04 00:10 | 30.27872 | -94.86320 | 11108 ft | 301 kts | 230° |
| 2026-05-04 00:10 | 30.26534 | -94.88157 | 10840 ft | 296 kts | 231° |
| 2026-05-04 00:11 | 30.25237 | -94.89982 | 10590 ft | 292 kts | 231° |
| 2026-05-04 00:11 | 30.23950 | -94.91800 | 10342 ft | 292 kts | 231° |
| 2026-05-04 00:11 | 30.22652 | -94.93614 | 10128 ft | 293 kts | 231° |
| 2026-05-04 00:11 | 30.21342 | -94.95423 | 10000 ft | 292 kts | 230° |
| 2026-05-04 00:12 | 30.20052 | -94.97198 | 9877 ft | 292 kts | 230° |
| 2026-05-04 00:12 | 30.18747 | -94.99001 | 9751 ft | 291 kts | 230° |
| 2026-05-04 00:12 | 30.17447 | -95.00799 | 9626 ft | 291 kts | 230° |
| 2026-05-04 00:12 | 30.16151 | -95.02588 | 9506 ft | 288 kts | 230° |
| 2026-05-04 00:13 | 30.14885 | -95.04338 | 9345 ft | 280 kts | 230° |
| 2026-05-04 00:13 | 30.13639 | -95.06062 | 9015 ft | 279 kts | 230° |
| 2026-05-04 00:13 | 30.12393 | -95.07782 | 8728 ft | 279 kts | 230° |
| 2026-05-04 00:13 | 30.11119 | -95.09451 | 8524 ft | 275 kts | 227° |
| 2026-05-04 00:14 | 30.09815 | -95.11055 | 8328 ft | 272 kts | 226° |
| 2026-05-04 00:14 | 30.08531 | -95.12639 | 8139 ft | 268 kts | 226° |
| 2026-05-04 00:14 | 30.07286 | -95.14221 | 7954 ft | 264 kts | 227° |
| 2026-05-04 00:14 | 30.06074 | -95.15782 | 7772 ft | 261 kts | 227° |
| 2026-05-04 00:15 | 30.04860 | -95.17338 | 7589 ft | 257 kts | 227° |
| 2026-05-04 00:15 | 30.03668 | -95.18853 | 7410 ft | 254 kts | 226° |
| 2026-05-04 00:15 | 30.02488 | -95.20352 | 7227 ft | 250 kts | 227° |
| 2026-05-04 00:15 | 30.01325 | -95.21837 | 7051 ft | 248 kts | 227° |
| 2026-05-04 00:16 | 30.00173 | -95.23310 | 6877 ft | 247 kts | 227° |
| 2026-05-04 00:16 | 29.99019 | -95.24781 | 6705 ft | 247 kts | 226° |
| 2026-05-04 00:16 | 29.97859 | -95.26255 | 6530 ft | 247 kts | 226° |
| 2026-05-04 00:16 | 29.96698 | -95.27730 | 6356 ft | 247 kts | 226° |
| 2026-05-04 00:17 | 29.95547 | -95.29195 | 6185 ft | 246 kts | 226° |
| 2026-05-04 00:17 | 29.94416 | -95.30636 | 6020 ft | 246 kts | 226° |
| 2026-05-04 00:17 | 29.93238 | -95.32143 | 5993 ft | 258 kts | 226° |
| 2026-05-04 00:17 | 29.92018 | -95.33701 | 5997 ft | 265 kts | 226° |
| 2026-05-04 00:18 | 29.90773 | -95.35277 | 5996 ft | 265 kts | 226° |
| 2026-05-04 00:18 | 29.89614 | -95.36932 | 5989 ft | 266 kts | 238° |
| 2026-05-04 00:18 | 29.89075 | -95.38940 | 5977 ft | 261 kts | 265° |
| 2026-05-04 00:18 | 29.89121 | -95.40976 | 5986 ft | 248 kts | 273° |
| 2026-05-04 00:19 | 29.89245 | -95.42911 | 5985 ft | 238 kts | 271° |
| 2026-05-04 00:19 | 29.89272 | -95.44799 | 5984 ft | 231 kts | 268° |
| 2026-05-04 00:19 | 29.89241 | -95.46604 | 5982 ft | 220 kts | 267° |
| 2026-05-04 00:19 | 29.89205 | -95.48356 | 5888 ft | 217 kts | 267° |
| 2026-05-04 00:20 | 29.89171 | -95.50095 | 5626 ft | 217 kts | 267° |
| 2026-05-04 00:20 | 29.89141 | -95.51836 | 5371 ft | 216 kts | 267° |
| 2026-05-04 00:20 | 29.89112 | -95.53565 | 5113 ft | 215 kts | 266° |
| 2026-05-04 00:20 | 29.89274 | -95.55277 | 4839 ft | 217 kts | 289° |
| 2026-05-04 00:21 | 29.90098 | -95.56697 | 4573 ft | 219 kts | 320° |
| 2026-05-04 00:21 | 29.91443 | -95.57474 | 4296 ft | 218 kts | 349° |
| 2026-05-04 00:21 | 29.92935 | -95.57716 | 4038 ft | 216 kts | 353° |
| 2026-05-04 00:21 | 29.94429 | -95.57952 | 3765 ft | 216 kts | 352° |
| 2026-05-04 00:22 | 29.95917 | -95.58193 | 3498 ft | 216 kts | 352° |
| 2026-05-04 00:22 | 29.97405 | -95.58257 | 3233 ft | 214 kts | 14° |
| 2026-05-04 00:22 | 29.98679 | -95.57459 | 2999 ft | 209 kts | 50° |
| 2026-05-04 00:22 | 29.99396 | -95.56022 | 2991 ft | 206 kts | 79° |
| 2026-05-04 00:23 | 29.99487 | -95.54392 | 3001 ft | 204 kts | 97° |
| 2026-05-04 00:23 | 29.99355 | -95.52767 | 2989 ft | 204 kts | 97° |
| 2026-05-04 00:23 | 29.99313 | -95.51126 | 2788 ft | 203 kts | 92° |
| 2026-05-04 00:23 | 29.99328 | -95.49515 | 2516 ft | 200 kts | 92° |
| 2026-05-04 00:24 | 29.99336 | -95.47956 | 2233 ft | 188 kts | 92° |
| 2026-05-04 00:24 | 29.99333 | -95.46489 | 1978 ft | 177 kts | 93° |
| 2026-05-04 00:24 | 29.99334 | -95.45105 | 1742 ft | 167 kts | 92° |
| 2026-05-04 00:24 | 29.99335 | -95.43800 | 1526 ft | 158 kts | 93° |
| 2026-05-04 00:25 | 29.99336 | -95.42572 | 1321 ft | 148 kts | 92° |
| 2026-05-04 00:25 | 29.99337 | -95.41423 | 1144 ft | 141 kts | 92° |
| 2026-05-04 00:25 | 29.99338 | -95.40309 | 957 ft | 138 kts | 93° |
| 2026-05-04 00:25 | 29.99338 | -95.39206 | 771 ft | 137 kts | 93° |
| 2026-05-04 00:26 | 29.99339 | -95.38106 | 587 ft | 137 kts | 93° |
| 2026-05-04 00:26 | 29.99340 | -95.37007 | 404 ft | 137 kts | 93° |
| 2026-05-04 00:26 | 29.99341 | -95.35912 | 220 ft | 136 kts | 93° |
| 2026-05-04 00:26 | 29.99337 | -95.34847 | 111 ft | 114 kts | 92° |
| 2026-05-04 00:27 | 29.99336 | -95.34304 | 111 ft | 23 kts | 88° |
| 2026-05-04 00:27 | 29.99338 | -95.34161 | 111 ft | 32 kts | 90° |
| 2026-05-04 00:27 | 29.99314 | -95.33915 | 111 ft | 29 kts | 127° |
| 2026-05-04 00:27 | 29.99196 | -95.33729 | 111 ft | 27 kts | 109° |
| 2026-05-04 00:28 | 29.99176 | -95.33518 | 111 ft | 27 kts | 89° |
| 2026-05-04 00:28 | 29.99180 | -95.33298 | 111 ft | 26 kts | 90° |
| 2026-05-04 00:28 | 29.99179 | -95.33106 | 111 ft | 20 kts | 92° |
| 2026-05-04 00:28 | 29.99098 | -95.33034 | 111 ft | 18 kts | 183° |
| 2026-05-04 00:29 | 29.99012 | -95.33039 | 111 ft | 19 kts | 182° |
| 2026-05-04 00:29 | 29.98876 | -95.33041 | 111 ft | 19 kts | 179° |
| 2026-05-04 00:29 | 29.98760 | -95.33059 | 39 ft | 12 kts | 196° |